sensor_id;sensor_type;location;lat;lon;timestamp;P1;durP1;ratioP1;P2;durP2;ratioP2
71610;SDS011;59459;51.172;6.682;2022-09-29T00:00:26;10.73;;;4.93;;
71610;SDS011;59459;51.172;6.682;2022-09-29T00:03:17;10.85;;;5.22;;
71610;SDS011;59459;51.172;6.682;2022-09-29T00:05:46;10.57;;;5.63;;
71610;SDS011;59459;51.172;6.682;2022-09-29T00:08:11;10.90;;;5.45;;
71610;SDS011;59459;51.172;6.682;2022-09-29T00:10:38;10.63;;;5.40;;
71610;SDS011;59459;51.172;6.682;2022-09-29T00:13:03;10.68;;;5.10;;
71610;SDS011;59459;51.172;6.682;2022-09-29T00:15:29;10.97;;;4.70;;
71610;SDS011;59459;51.172;6.682;2022-09-29T00:17:54;9.03;;;4.80;;
71610;SDS011;59459;51.172;6.682;2022-09-29T00:20:19;9.17;;;4.60;;
71610;SDS011;59459;51.172;6.682;2022-09-29T00:22:48;10.30;;;5.43;;
71610;SDS011;59459;51.172;6.682;2022-09-29T00:25:13;9.68;;;4.25;;
71610;SDS011;59459;51.172;6.682;2022-09-29T00:27:38;10.57;;;5.00;;
71610;SDS011;59459;51.172;6.682;2022-09-29T00:30:04;8.73;;;5.33;;
71610;SDS011;59459;51.172;6.682;2022-09-29T00:32:29;9.37;;;4.63;;
71610;SDS011;59459;51.172;6.682;2022-09-29T00:34:54;9.43;;;4.47;;
71610;SDS011;59459;51.172;6.682;2022-09-29T00:37:19;10.00;;;4.63;;
71610;SDS011;59459;51.172;6.682;2022-09-29T00:39:44;10.37;;;4.77;;
71610;SDS011;59459;51.172;6.682;2022-09-29T00:42:11;9.23;;;4.80;;
71610;SDS011;59459;51.172;6.682;2022-09-29T00:47:14;9.85;;;4.82;;
71610;SDS011;59459;51.172;6.682;2022-09-29T00:50:00;10.10;;;4.67;;
71610;SDS011;59459;51.172;6.682;2022-09-29T00:54:56;10.45;;;5.57;;
71610;SDS011;59459;51.172;6.682;2022-09-29T00:57:23;9.77;;;4.75;;
71610;SDS011;59459;51.172;6.682;2022-09-29T00:59:53;8.77;;;4.60;;
71610;SDS011;59459;51.172;6.682;2022-09-29T01:02:20;9.20;;;4.67;;
71610;SDS011;59459;51.172;6.682;2022-09-29T01:04:46;9.63;;;4.85;;
71610;SDS011;59459;51.172;6.682;2022-09-29T01:07:11;9.80;;;4.80;;
71610;SDS011;59459;51.172;6.682;2022-09-29T01:09:37;8.90;;;4.67;;
71610;SDS011;59459;51.172;6.682;2022-09-29T01:12:04;9.50;;;4.43;;
71610;SDS011;59459;51.172;6.682;2022-09-29T01:14:30;10.63;;;4.53;;
71610;SDS011;59459;51.172;6.682;2022-09-29T01:16:56;8.48;;;4.47;;
71610;SDS011;59459;51.172;6.682;2022-09-29T01:22:03;8.73;;;4.87;;
71610;SDS011;59459;51.172;6.682;2022-09-29T01:29:46;9.30;;;4.45;;
71610;SDS011;59459;51.172;6.682;2022-09-29T01:34:59;9.45;;;4.15;;
71610;SDS011;59459;51.172;6.682;2022-09-29T01:37:48;7.93;;;4.72;;
71610;SDS011;59459;51.172;6.682;2022-09-29T01:43:24;9.40;;;4.03;;
71610;SDS011;59459;51.172;6.682;2022-09-29T01:45:34;8.93;;;4.32;;
71610;SDS011;59459;51.172;6.682;2022-09-29T01:48:05;9.30;;;4.55;;
71610;SDS011;59459;51.172;6.682;2022-09-29T01:50:34;9.02;;;4.25;;
71610;SDS011;59459;51.172;6.682;2022-09-29T01:53:02;8.85;;;4.35;;
71610;SDS011;59459;51.172;6.682;2022-09-29T01:55:30;7.93;;;4.37;;
71610;SDS011;59459;51.172;6.682;2022-09-29T01:57:58;7.25;;;3.78;;
71610;SDS011;59459;51.172;6.682;2022-09-29T02:00:24;9.73;;;4.68;;
71610;SDS011;59459;51.172;6.682;2022-09-29T02:05:36;9.43;;;4.45;;
71610;SDS011;59459;51.172;6.682;2022-09-29T02:08:10;9.17;;;4.60;;
71610;SDS011;59459;51.172;6.682;2022-09-29T02:10:39;10.60;;;4.32;;
71610;SDS011;59459;51.172;6.682;2022-09-29T02:13:06;7.85;;;4.30;;
71610;SDS011;59459;51.172;6.682;2022-09-29T02:15:34;9.13;;;4.32;;
71610;SDS011;59459;51.172;6.682;2022-09-29T02:18:02;10.65;;;4.45;;
71610;SDS011;59459;51.172;6.682;2022-09-29T02:20:31;8.20;;;4.07;;
71610;SDS011;59459;51.172;6.682;2022-09-29T02:22:56;8.95;;;4.00;;
71610;SDS011;59459;51.172;6.682;2022-09-29T02:25:22;8.50;;;4.50;;
71610;SDS011;59459;51.172;6.682;2022-09-29T02:27:47;8.63;;;3.93;;
71610;SDS011;59459;51.172;6.682;2022-09-29T02:30:13;8.82;;;4.35;;
71610;SDS011;59459;51.172;6.682;2022-09-29T02:32:39;9.67;;;4.80;;
71610;SDS011;59459;51.172;6.682;2022-09-29T02:35:05;11.00;;;4.63;;
71610;SDS011;59459;51.172;6.682;2022-09-29T02:55:57;8.70;;;3.97;;
71610;SDS011;59459;51.172;6.682;2022-09-29T02:58:32;9.30;;;3.70;;
71610;SDS011;59459;51.172;6.682;2022-09-29T03:00:58;8.98;;;3.80;;
71610;SDS011;59459;51.172;6.682;2022-09-29T03:03:24;11.27;;;4.80;;
71610;SDS011;59459;51.172;6.682;2022-09-29T03:05:49;10.77;;;4.60;;
71610;SDS011;59459;51.172;6.682;2022-09-29T03:08:15;8.80;;;4.37;;
71610;SDS011;59459;51.172;6.682;2022-09-29T03:10:41;11.82;;;5.57;;
71610;SDS011;59459;51.172;6.682;2022-09-29T03:13:06;9.30;;;5.00;;
71610;SDS011;59459;51.172;6.682;2022-09-29T03:15:31;9.47;;;4.93;;
71610;SDS011;59459;51.172;6.682;2022-09-29T03:17:56;11.73;;;5.20;;
71610;SDS011;59459;51.172;6.682;2022-09-29T03:20:22;11.37;;;5.50;;
71610;SDS011;59459;51.172;6.682;2022-09-29T03:22:47;9.10;;;4.73;;
71610;SDS011;59459;51.172;6.682;2022-09-29T03:25:12;9.97;;;4.50;;
71610;SDS011;59459;51.172;6.682;2022-09-29T03:27:38;8.38;;;4.35;;
71610;SDS011;59459;51.172;6.682;2022-09-29T03:30:04;10.30;;;4.77;;
71610;SDS011;59459;51.172;6.682;2022-09-29T03:32:29;10.17;;;5.03;;
71610;SDS011;59459;51.172;6.682;2022-09-29T03:34:54;9.20;;;4.40;;
71610;SDS011;59459;51.172;6.682;2022-09-29T03:37:19;11.37;;;4.53;;
71610;SDS011;59459;51.172;6.682;2022-09-29T03:39:45;9.63;;;4.20;;
71610;SDS011;59459;51.172;6.682;2022-09-29T03:42:10;9.83;;;4.17;;
71610;SDS011;59459;51.172;6.682;2022-09-29T03:44:35;9.23;;;4.37;;
71610;SDS011;59459;51.172;6.682;2022-09-29T03:47:00;10.20;;;4.72;;
71610;SDS011;59459;51.172;6.682;2022-09-29T03:49:26;10.27;;;4.70;;
71610;SDS011;59459;51.172;6.682;2022-09-29T03:51:51;8.40;;;4.30;;
71610;SDS011;59459;51.172;6.682;2022-09-29T03:54:16;9.53;;;4.20;;
71610;SDS011;59459;51.172;6.682;2022-09-29T03:56:41;9.23;;;4.47;;
71610;SDS011;59459;51.172;6.682;2022-09-29T03:59:07;11.33;;;4.77;;
71610;SDS011;59459;51.172;6.682;2022-09-29T04:01:34;10.98;;;4.00;;
71610;SDS011;59459;51.172;6.682;2022-09-29T04:04:00;9.40;;;4.47;;
71610;SDS011;59459;51.172;6.682;2022-09-29T04:06:25;8.90;;;4.37;;
71610;SDS011;59459;51.172;6.682;2022-09-29T04:08:50;10.50;;;4.40;;
71610;SDS011;59459;51.172;6.682;2022-09-29T04:11:15;9.80;;;4.23;;
71610;SDS011;59459;51.172;6.682;2022-09-29T04:13:41;11.87;;;4.30;;
71610;SDS011;59459;51.172;6.682;2022-09-29T04:16:09;9.50;;;4.43;;
71610;SDS011;59459;51.172;6.682;2022-09-29T04:18:35;12.20;;;5.13;;
71610;SDS011;59459;51.172;6.682;2022-09-29T04:21:04;11.25;;;5.45;;
71610;SDS011;59459;51.172;6.682;2022-09-29T04:23:29;15.30;;;5.88;;
71610;SDS011;59459;51.172;6.682;2022-09-29T04:25:57;15.73;;;7.17;;
71610;SDS011;59459;51.172;6.682;2022-09-29T04:28:22;14.57;;;6.40;;
71610;SDS011;59459;51.172;6.682;2022-09-29T04:30:48;16.60;;;6.77;;
71610;SDS011;59459;51.172;6.682;2022-09-29T04:33:13;14.63;;;6.90;;
71610;SDS011;59459;51.172;6.682;2022-09-29T04:35:38;12.13;;;6.43;;
71610;SDS011;59459;51.172;6.682;2022-09-29T04:38:03;15.27;;;6.27;;
71610;SDS011;59459;51.172;6.682;2022-09-29T04:40:29;16.77;;;6.60;;
71610;SDS011;59459;51.172;6.682;2022-09-29T04:42:54;16.20;;;6.80;;
71610;SDS011;59459;51.172;6.682;2022-09-29T04:45:19;15.30;;;7.20;;
71610;SDS011;59459;51.172;6.682;2022-09-29T04:47:47;13.10;;;6.30;;
71610;SDS011;59459;51.172;6.682;2022-09-29T04:50:12;14.50;;;6.37;;
71610;SDS011;59459;51.172;6.682;2022-09-29T04:52:40;12.50;;;6.23;;
71610;SDS011;59459;51.172;6.682;2022-09-29T04:55:05;11.45;;;5.38;;
71610;SDS011;59459;51.172;6.682;2022-09-29T04:57:35;11.80;;;5.65;;
71610;SDS011;59459;51.172;6.682;2022-09-29T05:00:00;14.93;;;5.80;;
71610;SDS011;59459;51.172;6.682;2022-09-29T05:02:25;12.03;;;4.60;;
71610;SDS011;59459;51.172;6.682;2022-09-29T05:04:50;12.43;;;5.20;;
71610;SDS011;59459;51.172;6.682;2022-09-29T05:07:16;11.27;;;5.57;;
71610;SDS011;59459;51.172;6.682;2022-09-29T05:09:41;10.97;;;5.67;;
71610;SDS011;59459;51.172;6.682;2022-09-29T05:12:06;11.77;;;4.97;;
71610;SDS011;59459;51.172;6.682;2022-09-29T05:14:31;10.60;;;5.30;;
71610;SDS011;59459;51.172;6.682;2022-09-29T05:16:57;11.27;;;5.20;;
71610;SDS011;59459;51.172;6.682;2022-09-29T05:19:22;13.35;;;5.10;;
71610;SDS011;59459;51.172;6.682;2022-09-29T05:21:48;12.17;;;5.30;;
71610;SDS011;59459;51.172;6.682;2022-09-29T05:24:13;10.75;;;5.10;;
71610;SDS011;59459;51.172;6.682;2022-09-29T05:26:39;9.47;;;4.50;;
71610;SDS011;59459;51.172;6.682;2022-09-29T05:29:04;10.30;;;4.47;;
71610;SDS011;59459;51.172;6.682;2022-09-29T05:31:29;10.53;;;4.97;;
71610;SDS011;59459;51.172;6.682;2022-09-29T05:33:55;10.93;;;5.00;;
71610;SDS011;59459;51.172;6.682;2022-09-29T05:36:20;9.93;;;5.00;;
71610;SDS011;59459;51.172;6.682;2022-09-29T05:38:45;9.30;;;4.43;;
71610;SDS011;59459;51.172;6.682;2022-09-29T05:41:11;10.07;;;5.03;;
71610;SDS011;59459;51.172;6.682;2022-09-29T05:43:37;8.48;;;4.35;;
71610;SDS011;59459;51.172;6.682;2022-09-29T05:46:03;9.53;;;4.97;;
71610;SDS011;59459;51.172;6.682;2022-09-29T05:48:28;12.65;;;5.00;;
71610;SDS011;59459;51.172;6.682;2022-09-29T05:50:57;11.05;;;4.65;;
71610;SDS011;59459;51.172;6.682;2022-09-29T05:53:22;10.23;;;4.90;;
71610;SDS011;59459;51.172;6.682;2022-09-29T05:55:47;10.50;;;5.03;;
71610;SDS011;59459;51.172;6.682;2022-09-29T05:58:12;11.83;;;5.37;;
71610;SDS011;59459;51.172;6.682;2022-09-29T06:00:38;12.80;;;5.53;;
71610;SDS011;59459;51.172;6.682;2022-09-29T06:03:03;11.27;;;5.33;;
71610;SDS011;59459;51.172;6.682;2022-09-29T06:05:31;10.47;;;4.93;;
71610;SDS011;59459;51.172;6.682;2022-09-29T06:07:56;10.30;;;5.00;;
71610;SDS011;59459;51.172;6.682;2022-09-29T06:10:22;12.02;;;5.70;;
71610;SDS011;59459;51.172;6.682;2022-09-29T06:12:47;13.90;;;6.90;;
71610;SDS011;59459;51.172;6.682;2022-09-29T06:15:12;11.83;;;5.60;;
71610;SDS011;59459;51.172;6.682;2022-09-29T06:17:38;12.37;;;6.07;;
71610;SDS011;59459;51.172;6.682;2022-09-29T06:20:04;11.60;;;5.35;;
71610;SDS011;59459;51.172;6.682;2022-09-29T06:22:29;13.73;;;5.83;;
71610;SDS011;59459;51.172;6.682;2022-09-29T06:24:57;12.17;;;5.70;;
71610;SDS011;59459;51.172;6.682;2022-09-29T06:27:23;12.05;;;6.00;;
71610;SDS011;59459;51.172;6.682;2022-09-29T06:29:48;13.30;;;6.30;;
71610;SDS011;59459;51.172;6.682;2022-09-29T06:32:13;14.50;;;5.80;;
71610;SDS011;59459;51.172;6.682;2022-09-29T06:34:39;12.98;;;6.22;;
71610;SDS011;59459;51.172;6.682;2022-09-29T06:37:24;11.83;;;6.77;;
71610;SDS011;59459;51.172;6.682;2022-09-29T06:40:04;13.52;;;6.63;;
71610;SDS011;59459;51.172;6.682;2022-09-29T06:42:30;14.77;;;6.65;;
71610;SDS011;59459;51.172;6.682;2022-09-29T06:44:55;16.10;;;6.87;;
71610;SDS011;59459;51.172;6.682;2022-09-29T06:47:20;14.20;;;7.13;;
71610;SDS011;59459;51.172;6.682;2022-09-29T06:49:45;12.73;;;6.43;;
71610;SDS011;59459;51.172;6.682;2022-09-29T06:52:11;13.10;;;6.90;;
71610;SDS011;59459;51.172;6.682;2022-09-29T06:54:36;15.23;;;7.13;;
71610;SDS011;59459;51.172;6.682;2022-09-29T06:57:01;11.87;;;6.53;;
71610;SDS011;59459;51.172;6.682;2022-09-29T06:59:26;16.07;;;7.70;;
71610;SDS011;59459;51.172;6.682;2022-09-29T07:01:51;14.00;;;7.60;;
71610;SDS011;59459;51.172;6.682;2022-09-29T07:04:17;12.43;;;6.73;;
71610;SDS011;59459;51.172;6.682;2022-09-29T07:06:43;17.13;;;7.78;;
71610;SDS011;59459;51.172;6.682;2022-09-29T07:09:09;13.50;;;6.97;;
71610;SDS011;59459;51.172;6.682;2022-09-29T07:11:39;15.60;;;7.10;;
71610;SDS011;59459;51.172;6.682;2022-09-29T07:14:04;19.97;;;7.27;;
71610;SDS011;59459;51.172;6.682;2022-09-29T07:16:32;14.20;;;7.00;;
71610;SDS011;59459;51.172;6.682;2022-09-29T07:18:57;13.40;;;6.73;;
71610;SDS011;59459;51.172;6.682;2022-09-29T07:21:23;14.73;;;7.40;;
71610;SDS011;59459;51.172;6.682;2022-09-29T07:23:48;16.02;;;7.65;;
71610;SDS011;59459;51.172;6.682;2022-09-29T07:26:14;16.77;;;7.60;;
71610;SDS011;59459;51.172;6.682;2022-09-29T07:28:40;16.48;;;7.40;;
71610;SDS011;59459;51.172;6.682;2022-09-29T07:31:07;16.27;;;7.10;;
71610;SDS011;59459;51.172;6.682;2022-09-29T07:33:32;15.82;;;6.90;;
71610;SDS011;59459;51.172;6.682;2022-09-29T07:35:58;15.80;;;6.70;;
71610;SDS011;59459;51.172;6.682;2022-09-29T07:38:25;16.02;;;8.15;;
71610;SDS011;59459;51.172;6.682;2022-09-29T07:43:39;14.65;;;7.28;;
71610;SDS011;59459;51.172;6.682;2022-09-29T07:46:12;18.30;;;8.65;;
71610;SDS011;59459;51.172;6.682;2022-09-29T07:48:43;16.23;;;7.97;;
71610;SDS011;59459;51.172;6.682;2022-09-29T07:51:10;18.73;;;8.07;;
71610;SDS011;59459;51.172;6.682;2022-09-29T07:53:48;17.33;;;7.47;;
71610;SDS011;59459;51.172;6.682;2022-09-29T07:56:17;16.17;;;7.72;;
71610;SDS011;59459;51.172;6.682;2022-09-29T07:58:44;17.17;;;8.43;;
71610;SDS011;59459;51.172;6.682;2022-09-29T08:10:12;19.67;;;8.25;;
71610;SDS011;59459;51.172;6.682;2022-09-29T08:19:53;13.80;;;7.35;;
71610;SDS011;59459;51.172;6.682;2022-09-29T08:22:18;15.77;;;7.78;;
71610;SDS011;59459;51.172;6.682;2022-09-29T08:25:11;17.17;;;7.35;;
71610;SDS011;59459;51.172;6.682;2022-09-29T17:05:17;3.25;;;0.98;;
71610;SDS011;59459;51.172;6.682;2022-09-29T17:07:42;5.23;;;1.13;;
71610;SDS011;59459;51.172;6.682;2022-09-29T17:10:19;3.73;;;0.97;;
71610;SDS011;59459;51.172;6.682;2022-09-29T17:12:45;3.80;;;1.13;;
71610;SDS011;59459;51.172;6.682;2022-09-29T17:15:14;4.27;;;1.20;;
71610;SDS011;59459;51.172;6.682;2022-09-29T17:17:40;4.03;;;1.15;;
71610;SDS011;59459;51.172;6.682;2022-09-29T17:20:11;4.32;;;1.73;;
71610;SDS011;59459;51.172;6.682;2022-09-29T17:22:37;9.07;;;1.80;;
71610;SDS011;59459;51.172;6.682;2022-09-29T17:25:03;6.30;;;2.60;;
71610;SDS011;59459;51.172;6.682;2022-09-29T17:27:28;6.03;;;2.30;;
71610;SDS011;59459;51.172;6.682;2022-09-29T17:30:22;7.80;;;2.78;;
71610;SDS011;59459;51.172;6.682;2022-09-29T17:32:48;7.78;;;2.83;;
71610;SDS011;59459;51.172;6.682;2022-09-29T17:35:15;7.97;;;3.58;;
71610;SDS011;59459;51.172;6.682;2022-09-29T17:37:41;9.50;;;3.60;;
71610;SDS011;59459;51.172;6.682;2022-09-29T17:42:52;8.18;;;3.55;;
71610;SDS011;59459;51.172;6.682;2022-09-29T17:45:19;7.95;;;3.67;;
71610;SDS011;59459;51.172;6.682;2022-09-29T17:47:45;10.23;;;4.83;;
71610;SDS011;59459;51.172;6.682;2022-09-29T17:50:24;8.27;;;4.72;;
71610;SDS011;59459;51.172;6.682;2022-09-29T17:52:50;8.85;;;4.30;;
71610;SDS011;59459;51.172;6.682;2022-09-29T17:55:16;10.15;;;4.50;;
71610;SDS011;59459;51.172;6.682;2022-09-29T17:57:44;8.93;;;3.97;;
71610;SDS011;59459;51.172;6.682;2022-09-29T18:00:15;8.40;;;4.13;;
71610;SDS011;59459;51.172;6.682;2022-09-29T18:02:40;9.10;;;4.28;;
71610;SDS011;59459;51.172;6.682;2022-09-29T18:05:06;8.00;;;3.93;;
71610;SDS011;59459;51.172;6.682;2022-09-29T18:07:42;10.10;;;4.63;;
71610;SDS011;59459;51.172;6.682;2022-09-29T18:14:15;17.52;;;7.60;;
71610;SDS011;59459;51.172;6.682;2022-09-29T18:19:14;23.70;;;9.40;;
71610;SDS011;59459;51.172;6.682;2022-09-29T18:24:46;20.33;;;9.35;;
71610;SDS011;59459;51.172;6.682;2022-09-29T18:27:15;20.15;;;9.20;;
71610;SDS011;59459;51.172;6.682;2022-09-29T18:29:43;19.40;;;8.37;;
71610;SDS011;59459;51.172;6.682;2022-09-29T18:41:19;16.65;;;8.15;;
71610;SDS011;59459;51.172;6.682;2022-09-29T18:43:54;16.05;;;7.97;;
71610;SDS011;59459;51.172;6.682;2022-09-29T18:46:24;10.03;;;5.00;;
71610;SDS011;59459;51.172;6.682;2022-09-29T18:52:39;8.95;;;3.33;;
71610;SDS011;59459;51.172;6.682;2022-09-29T18:55:05;8.67;;;3.60;;
71610;SDS011;59459;51.172;6.682;2022-09-29T18:57:42;7.13;;;3.00;;
71610;SDS011;59459;51.172;6.682;2022-09-29T19:00:14;13.80;;;3.85;;
71610;SDS011;59459;51.172;6.682;2022-09-29T19:02:44;7.10;;;3.13;;
71610;SDS011;59459;51.172;6.682;2022-09-29T19:05:14;7.85;;;3.15;;
71610;SDS011;59459;51.172;6.682;2022-09-29T19:10:32;8.18;;;4.07;;
71610;SDS011;59459;51.172;6.682;2022-09-29T19:13:01;10.80;;;4.35;;
71610;SDS011;59459;51.172;6.682;2022-09-29T19:15:28;8.65;;;4.60;;
71610;SDS011;59459;51.172;6.682;2022-09-29T19:17:54;9.98;;;4.80;;
71610;SDS011;59459;51.172;6.682;2022-09-29T19:20:23;10.87;;;4.27;;
71610;SDS011;59459;51.172;6.682;2022-09-29T19:22:50;9.25;;;4.25;;
71610;SDS011;59459;51.172;6.682;2022-09-29T19:25:17;8.98;;;4.72;;
71610;SDS011;59459;51.172;6.682;2022-09-29T19:27:46;11.73;;;4.72;;
71610;SDS011;59459;51.172;6.682;2022-09-29T19:30:12;11.13;;;5.43;;
71610;SDS011;59459;51.172;6.682;2022-09-29T19:32:38;11.17;;;5.33;;
71610;SDS011;59459;51.172;6.682;2022-09-29T19:35:04;20.48;;;9.88;;
71610;SDS011;59459;51.172;6.682;2022-09-29T19:37:29;18.17;;;9.93;;
71610;SDS011;59459;51.172;6.682;2022-09-29T19:39:55;22.10;;;11.82;;
71610;SDS011;59459;51.172;6.682;2022-09-29T19:42:21;23.83;;;11.43;;
71610;SDS011;59459;51.172;6.682;2022-09-29T19:44:46;24.38;;;12.27;;
71610;SDS011;59459;51.172;6.682;2022-09-29T19:47:13;31.13;;;14.70;;
71610;SDS011;59459;51.172;6.682;2022-09-29T19:49:38;32.47;;;16.98;;
71610;SDS011;59459;51.172;6.682;2022-09-29T19:52:04;26.87;;;13.93;;
71610;SDS011;59459;51.172;6.682;2022-09-29T19:54:31;34.45;;;18.02;;
71610;SDS011;59459;51.172;6.682;2022-09-29T19:57:01;31.77;;;15.80;;
71610;SDS011;59459;51.172;6.682;2022-09-29T19:59:27;35.38;;;17.67;;
71610;SDS011;59459;51.172;6.682;2022-09-29T20:01:53;35.00;;;18.70;;
71610;SDS011;59459;51.172;6.682;2022-09-29T20:04:19;38.05;;;18.52;;
71610;SDS011;59459;51.172;6.682;2022-09-29T20:06:45;32.20;;;17.53;;
71610;SDS011;59459;51.172;6.682;2022-09-29T20:09:10;34.72;;;17.77;;
71610;SDS011;59459;51.172;6.682;2022-09-29T20:11:36;37.13;;;17.90;;
71610;SDS011;59459;51.172;6.682;2022-09-29T20:14:03;34.77;;;17.70;;
71610;SDS011;59459;51.172;6.682;2022-09-29T20:16:29;32.38;;;16.77;;
71610;SDS011;59459;51.172;6.682;2022-09-29T20:18:54;32.88;;;18.10;;
71610;SDS011;59459;51.172;6.682;2022-09-29T20:21:20;33.07;;;17.07;;
71610;SDS011;59459;51.172;6.682;2022-09-29T20:23:46;32.78;;;17.42;;
71610;SDS011;59459;51.172;6.682;2022-09-29T20:26:12;29.47;;;15.60;;
71610;SDS011;59459;51.172;6.682;2022-09-29T20:28:37;28.47;;;15.57;;
71610;SDS011;59459;51.172;6.682;2022-09-29T20:31:02;27.48;;;14.77;;
71610;SDS011;59459;51.172;6.682;2022-09-29T20:33:29;24.20;;;13.70;;
71610;SDS011;59459;51.172;6.682;2022-09-29T20:35:55;29.73;;;14.70;;
71610;SDS011;59459;51.172;6.682;2022-09-29T20:38:20;24.83;;;13.93;;
71610;SDS011;59459;51.172;6.682;2022-09-29T20:40:45;22.27;;;13.07;;
71610;SDS011;59459;51.172;6.682;2022-09-29T20:43:12;23.83;;;12.20;;
71610;SDS011;59459;51.172;6.682;2022-09-29T20:45:38;26.52;;;12.45;;
71610;SDS011;59459;51.172;6.682;2022-09-29T20:48:04;20.27;;;12.20;;
71610;SDS011;59459;51.172;6.682;2022-09-29T20:50:29;22.13;;;11.70;;
71610;SDS011;59459;51.172;6.682;2022-09-29T20:52:55;18.50;;;11.20;;
71610;SDS011;59459;51.172;6.682;2022-09-29T20:55:20;21.00;;;12.63;;
71610;SDS011;59459;51.172;6.682;2022-09-29T20:57:46;19.33;;;11.17;;
71610;SDS011;59459;51.172;6.682;2022-09-29T21:00:11;19.23;;;10.40;;
71610;SDS011;59459;51.172;6.682;2022-09-29T21:02:37;18.40;;;10.65;;
71610;SDS011;59459;51.172;6.682;2022-09-29T21:05:02;17.93;;;10.50;;
71610;SDS011;59459;51.172;6.682;2022-09-29T21:07:27;18.50;;;10.57;;
71610;SDS011;59459;51.172;6.682;2022-09-29T21:10:03;20.33;;;9.27;;
71610;SDS011;59459;51.172;6.682;2022-09-29T21:12:29;19.60;;;10.82;;
71610;SDS011;59459;51.172;6.682;2022-09-29T21:14:56;19.47;;;11.17;;
71610;SDS011;59459;51.172;6.682;2022-09-29T21:17:21;16.23;;;9.70;;
71610;SDS011;59459;51.172;6.682;2022-09-29T21:19:47;15.48;;;8.75;;
71610;SDS011;59459;51.172;6.682;2022-09-29T21:22:12;16.37;;;9.10;;
71610;SDS011;59459;51.172;6.682;2022-09-29T21:24:37;15.70;;;9.33;;
71610;SDS011;59459;51.172;6.682;2022-09-29T21:27:04;15.00;;;9.10;;
71610;SDS011;59459;51.172;6.682;2022-09-29T21:29:29;15.95;;;9.75;;
71610;SDS011;59459;51.172;6.682;2022-09-29T21:31:55;15.40;;;8.93;;
71610;SDS011;59459;51.172;6.682;2022-09-29T21:34:20;16.73;;;10.13;;
71610;SDS011;59459;51.172;6.682;2022-09-29T21:36:45;16.67;;;8.80;;
71610;SDS011;59459;51.172;6.682;2022-09-29T21:39:11;18.03;;;8.20;;
71610;SDS011;59459;51.172;6.682;2022-09-29T21:41:38;19.08;;;9.20;;
71610;SDS011;59459;51.172;6.682;2022-09-29T21:44:09;19.23;;;8.77;;
71610;SDS011;59459;51.172;6.682;2022-09-29T21:46:37;15.95;;;9.43;;
71610;SDS011;59459;51.172;6.682;2022-09-29T21:49:03;15.83;;;9.87;;
71610;SDS011;59459;51.172;6.682;2022-09-29T21:51:29;19.10;;;9.63;;
71610;SDS011;59459;51.172;6.682;2022-09-29T21:53:55;16.30;;;8.30;;
71610;SDS011;59459;51.172;6.682;2022-09-29T21:56:22;19.10;;;10.70;;
71610;SDS011;59459;51.172;6.682;2022-09-29T21:58:48;14.32;;;8.82;;
71610;SDS011;59459;51.172;6.682;2022-09-29T22:01:15;16.65;;;9.73;;
71610;SDS011;59459;51.172;6.682;2022-09-29T22:03:41;15.33;;;9.13;;
71610;SDS011;59459;51.172;6.682;2022-09-29T22:06:11;19.77;;;8.95;;
71610;SDS011;59459;51.172;6.682;2022-09-29T22:08:36;17.67;;;10.02;;
71610;SDS011;59459;51.172;6.682;2022-09-29T22:11:01;15.50;;;9.30;;
71610;SDS011;59459;51.172;6.682;2022-09-29T22:13:27;16.03;;;9.00;;
71610;SDS011;59459;51.172;6.682;2022-09-29T22:15:59;15.93;;;9.48;;
71610;SDS011;59459;51.172;6.682;2022-09-29T22:18:25;13.65;;;9.10;;
71610;SDS011;59459;51.172;6.682;2022-09-29T22:20:51;13.57;;;9.00;;
71610;SDS011;59459;51.172;6.682;2022-09-29T22:23:16;15.30;;;8.80;;
71610;SDS011;59459;51.172;6.682;2022-09-29T22:25:42;14.33;;;8.87;;
71610;SDS011;59459;51.172;6.682;2022-09-29T22:28:08;16.10;;;8.75;;
71610;SDS011;59459;51.172;6.682;2022-09-29T22:30:33;15.63;;;8.87;;
71610;SDS011;59459;51.172;6.682;2022-09-29T22:32:59;16.00;;;9.40;;
71610;SDS011;59459;51.172;6.682;2022-09-29T22:35:24;14.37;;;8.90;;
71610;SDS011;59459;51.172;6.682;2022-09-29T22:37:50;13.13;;;8.82;;
71610;SDS011;59459;51.172;6.682;2022-09-29T22:40:15;17.13;;;9.43;;
71610;SDS011;59459;51.172;6.682;2022-09-29T22:42:40;16.60;;;9.27;;
71610;SDS011;59459;51.172;6.682;2022-09-29T22:45:06;16.13;;;8.85;;
71610;SDS011;59459;51.172;6.682;2022-09-29T22:47:31;15.47;;;9.37;;
71610;SDS011;59459;51.172;6.682;2022-09-29T22:49:57;16.00;;;8.97;;
71610;SDS011;59459;51.172;6.682;2022-09-29T22:52:22;13.73;;;8.33;;
71610;SDS011;59459;51.172;6.682;2022-09-29T22:54:47;15.63;;;8.80;;
71610;SDS011;59459;51.172;6.682;2022-09-29T22:57:12;15.90;;;9.10;;
71610;SDS011;59459;51.172;6.682;2022-09-29T22:59:38;15.40;;;9.02;;
71610;SDS011;59459;51.172;6.682;2022-09-29T23:02:03;15.67;;;9.53;;
71610;SDS011;59459;51.172;6.682;2022-09-29T23:04:29;15.00;;;8.57;;
71610;SDS011;59459;51.172;6.682;2022-09-29T23:06:54;17.23;;;9.90;;
71610;SDS011;59459;51.172;6.682;2022-09-29T23:09:19;16.60;;;8.80;;
71610;SDS011;59459;51.172;6.682;2022-09-29T23:11:45;16.63;;;9.27;;
71610;SDS011;59459;51.172;6.682;2022-09-29T23:14:11;15.25;;;8.07;;
71610;SDS011;59459;51.172;6.682;2022-09-29T23:16:37;16.52;;;8.75;;
71610;SDS011;59459;51.172;6.682;2022-09-29T23:19:02;15.93;;;8.47;;
71610;SDS011;59459;51.172;6.682;2022-09-29T23:21:28;13.50;;;8.17;;
71610;SDS011;59459;51.172;6.682;2022-09-29T23:23:54;15.00;;;8.13;;
71610;SDS011;59459;51.172;6.682;2022-09-29T23:26:23;17.23;;;8.57;;
71610;SDS011;59459;51.172;6.682;2022-09-29T23:28:49;14.82;;;8.75;;
71610;SDS011;59459;51.172;6.682;2022-09-29T23:31:14;14.40;;;8.00;;
71610;SDS011;59459;51.172;6.682;2022-09-29T23:33:40;15.10;;;7.80;;
71610;SDS011;59459;51.172;6.682;2022-09-29T23:36:09;15.90;;;8.10;;
71610;SDS011;59459;51.172;6.682;2022-09-29T23:38:38;12.63;;;7.43;;
71610;SDS011;59459;51.172;6.682;2022-09-29T23:41:22;15.13;;;8.18;;
71610;SDS011;59459;51.172;6.682;2022-09-29T23:43:51;18.20;;;8.38;;
71610;SDS011;59459;51.172;6.682;2022-09-29T23:46:16;17.50;;;8.57;;
71610;SDS011;59459;51.172;6.682;2022-09-29T23:48:41;13.37;;;7.03;;
71610;SDS011;59459;51.172;6.682;2022-09-29T23:51:06;15.10;;;7.70;;
71610;SDS011;59459;51.172;6.682;2022-09-29T23:53:33;13.57;;;7.25;;
71610;SDS011;59459;51.172;6.682;2022-09-29T23:55:58;15.90;;;7.97;;
71610;SDS011;59459;51.172;6.682;2022-09-29T23:58:23;13.00;;;6.93;;
